createdAt,value
2018-06-30T00:01:22.454Z,14.60
2018-06-30T00:03:54.977Z,14.50
2018-06-30T00:06:24.236Z,14.60
2018-06-30T00:08:54.677Z,14.50
2018-06-30T00:11:22.398Z,14.60
2018-06-30T00:13:50.048Z,14.60
2018-06-30T00:16:17.706Z,14.60
2018-06-30T00:18:45.324Z,14.40
2018-06-30T00:21:12.962Z,14.40
2018-06-30T00:23:41.024Z,14.40
2018-06-30T00:26:09.077Z,14.40
2018-06-30T00:28:36.735Z,14.40
2018-06-30T00:31:04.456Z,14.40
2018-06-30T00:33:32.084Z,14.40
2018-06-30T00:35:59.684Z,14.30
2018-06-30T00:38:27.277Z,14.00
2018-06-30T00:40:55.281Z,14.10
2018-06-30T00:43:22.877Z,14.30
2018-06-30T00:45:50.442Z,14.30
2018-06-30T00:48:18.044Z,14.10
2018-06-30T00:50:45.758Z,14.20
2018-06-30T00:53:13.349Z,14.20
2018-06-30T00:55:40.998Z,14.10
2018-06-30T00:58:09.176Z,14.10
2018-06-30T01:00:37.165Z,14.00
2018-06-30T01:03:04.759Z,13.90
2018-06-30T01:05:32.350Z,13.90
2018-06-30T01:08:00.076Z,13.90
2018-06-30T01:10:27.686Z,14.00
2018-06-30T01:12:55.356Z,13.90
2018-06-30T01:15:23.133Z,13.90
2018-06-30T01:17:50.729Z,13.90
2018-06-30T01:20:18.349Z,13.90
2018-06-30T01:22:45.932Z,13.90
2018-06-30T01:25:13.538Z,13.90
2018-06-30T01:27:41.110Z,13.90
2018-06-30T01:30:10.145Z,13.70
2018-06-30T01:32:37.933Z,13.70
2018-06-30T01:35:05.604Z,13.70
2018-06-30T01:37:33.217Z,13.60
2018-06-30T01:40:00.808Z,13.50
2018-06-30T01:42:28.398Z,13.50
2018-06-30T01:44:55.971Z,13.40
2018-06-30T01:47:23.560Z,13.40
2018-06-30T01:49:51.132Z,13.50
2018-06-30T01:52:18.734Z,13.50
2018-06-30T01:54:46.362Z,13.50
2018-06-30T01:57:13.962Z,13.40
2018-06-30T01:59:41.539Z,13.20
2018-06-30T02:02:09.144Z,13.40
2018-06-30T02:04:36.748Z,13.40
2018-06-30T02:07:04.613Z,13.40
2018-06-30T02:09:32.210Z,13.40
2018-06-30T02:11:59.834Z,13.40
2018-06-30T02:14:27.442Z,13.50
2018-06-30T02:16:55.026Z,13.40
2018-06-30T02:19:22.599Z,13.20
2018-06-30T02:21:50.195Z,13.20
2018-06-30T02:24:17.814Z,13.20
2018-06-30T02:26:45.411Z,13.20
2018-06-30T02:29:13.028Z,13.20
2018-06-30T02:31:40.582Z,13.20
2018-06-30T02:34:08.192Z,13.20
2018-06-30T02:36:35.778Z,13.20
2018-06-30T02:39:05.438Z,12.90
2018-06-30T02:44:00.542Z,13.00
2018-06-30T02:46:28.124Z,13.00
2018-06-30T02:48:55.776Z,13.00
2018-06-30T02:51:23.374Z,13.10
2018-06-30T02:53:50.940Z,13.10
2018-06-30T02:56:18.549Z,13.10
2018-06-30T02:58:46.141Z,13.00
2018-06-30T03:01:13.745Z,12.90
2018-06-30T03:03:41.353Z,12.80
2018-06-30T03:06:08.985Z,13.00
2018-06-30T03:08:36.580Z,13.00
2018-06-30T03:11:04.245Z,13.10
2018-06-30T03:13:31.844Z,13.10
2018-06-30T03:15:59.432Z,12.90
2018-06-30T03:18:26.994Z,12.80
2018-06-30T03:20:54.626Z,12.60
2018-06-30T03:23:22.269Z,12.60
2018-06-30T03:25:49.849Z,12.70
2018-06-30T03:28:17.435Z,12.60
2018-06-30T03:30:45.069Z,12.30
2018-06-30T03:33:12.752Z,12.50
2018-06-30T03:35:40.368Z,12.60
2018-06-30T03:38:07.941Z,12.40
2018-06-30T03:40:35.554Z,12.40
2018-06-30T03:43:03.158Z,12.50
2018-06-30T03:45:30.777Z,12.40
2018-06-30T03:47:58.361Z,12.50
2018-06-30T03:50:25.952Z,12.60
2018-06-30T03:52:53.732Z,12.50
2018-06-30T03:55:21.336Z,12.50
2018-06-30T03:57:48.912Z,12.60
2018-06-30T04:00:16.506Z,12.40
2018-06-30T04:02:44.100Z,12.30
2018-06-30T04:05:11.678Z,12.40
2018-06-30T04:07:39.292Z,12.50
2018-06-30T04:10:06.862Z,12.70
2018-06-30T04:12:34.485Z,12.70
2018-06-30T04:15:02.073Z,12.70
2018-06-30T04:17:29.760Z,12.70
2018-06-30T04:19:57.332Z,12.70
2018-06-30T04:22:24.960Z,12.80
2018-06-30T04:24:52.551Z,12.90
2018-06-30T04:27:20.147Z,12.90
2018-06-30T04:29:47.777Z,12.90
2018-06-30T04:32:15.393Z,12.90
2018-06-30T04:34:43.004Z,12.90
2018-06-30T04:37:10.589Z,13.00
2018-06-30T04:39:38.182Z,13.10
2018-06-30T04:42:05.875Z,13.10
2018-06-30T04:44:33.467Z,13.20
2018-06-30T04:47:01.053Z,13.30
2018-06-30T04:49:28.627Z,13.40
2018-06-30T04:51:56.229Z,13.50
2018-06-30T04:54:23.813Z,13.50
2018-06-30T04:56:51.424Z,13.50
2018-06-30T04:59:19.005Z,13.50
2018-06-30T05:01:46.650Z,13.50
2018-06-30T05:04:14.251Z,13.70
2018-06-30T05:06:41.838Z,13.70
2018-06-30T05:09:09.494Z,13.90
2018-06-30T05:11:37.144Z,13.90
2018-06-30T05:14:04.861Z,14.00
2018-06-30T05:16:32.465Z,14.10
2018-06-30T05:19:00.109Z,14.20
2018-06-30T05:21:27.695Z,14.30
2018-06-30T05:23:55.287Z,14.40
2018-06-30T05:26:22.899Z,14.50
2018-06-30T05:28:50.533Z,14.60
2018-06-30T05:31:18.118Z,14.70
2018-06-30T05:33:45.803Z,14.80
2018-06-30T05:36:13.354Z,14.90
2018-06-30T05:38:40.945Z,15.10
2018-06-30T05:41:08.609Z,15.10
2018-06-30T05:43:36.208Z,15.20
2018-06-30T05:46:04.282Z,15.30
2018-06-30T05:48:31.912Z,15.40
2018-06-30T05:50:59.511Z,15.50
2018-06-30T05:53:27.075Z,15.70
2018-06-30T05:55:54.741Z,15.80
2018-06-30T05:58:45.637Z,16.00
2018-06-30T06:01:13.294Z,16.20
2018-06-30T06:03:40.928Z,16.40
2018-06-30T06:06:08.624Z,16.40
2018-06-30T06:08:36.217Z,16.60
2018-06-30T06:11:03.881Z,16.70
2018-06-30T06:13:31.452Z,16.80
2018-06-30T06:15:59.135Z,17.00
2018-06-30T06:18:26.718Z,17.20
2018-06-30T06:20:54.372Z,17.30
2018-06-30T06:23:21.993Z,17.70
2018-06-30T06:25:49.624Z,17.90
2018-06-30T06:28:17.235Z,18.00
2018-06-30T06:30:44.882Z,18.20
2018-06-30T06:33:12.492Z,18.40
2018-06-30T06:35:40.081Z,18.50
2018-06-30T06:38:07.741Z,18.60
2018-06-30T06:40:35.363Z,18.70
2018-06-30T06:43:03.016Z,18.90
2018-06-30T06:45:30.656Z,18.90
2018-06-30T06:53:52.698Z,19.20
2018-06-30T06:56:20.292Z,19.60
2018-06-30T06:58:47.905Z,19.80
2018-06-30T07:01:15.468Z,19.90
2018-06-30T07:03:43.557Z,20.00
2018-06-30T07:06:11.056Z,20.10
2018-06-30T07:08:38.669Z,20.30
2018-06-30T07:11:06.269Z,20.40
2018-06-30T07:13:33.874Z,20.60
2018-06-30T07:16:01.510Z,20.60
2018-06-30T07:18:29.125Z,20.70
2018-06-30T07:20:56.711Z,20.80
2018-06-30T07:23:24.316Z,21.10
2018-06-30T07:25:51.873Z,21.20
2018-06-30T07:28:19.497Z,21.40
2018-06-30T07:30:47.121Z,21.50
2018-06-30T07:33:14.681Z,21.70
2018-06-30T07:35:42.270Z,21.70
2018-06-30T07:38:09.860Z,21.80
2018-06-30T07:40:37.432Z,21.90
2018-06-30T07:43:05.173Z,22.00
2018-06-30T07:45:32.755Z,22.20
2018-06-30T07:48:00.345Z,22.30
2018-06-30T07:50:27.932Z,22.30
2018-06-30T07:52:55.565Z,22.30
2018-06-30T07:55:23.302Z,22.40
2018-06-30T07:57:50.873Z,22.50
2018-06-30T08:00:18.494Z,22.50
2018-06-30T08:02:46.114Z,22.80
2018-06-30T08:05:14.052Z,22.90
2018-06-30T08:07:41.608Z,22.90
2018-06-30T08:10:09.254Z,22.90
2018-06-30T08:12:36.879Z,23.30
2018-06-30T08:15:05.161Z,23.10
2018-06-30T08:17:32.904Z,23.30
2018-06-30T08:20:00.523Z,23.30
2018-06-30T08:22:28.142Z,23.60
2018-06-30T08:24:55.689Z,23.50
2018-06-30T08:27:23.310Z,23.70
2018-06-30T08:29:50.935Z,23.80
2018-06-30T08:32:18.613Z,23.80
2018-06-30T08:34:46.181Z,23.70
2018-06-30T08:37:13.757Z,23.70
2018-06-30T08:39:41.328Z,24.00
2018-06-30T08:42:09.035Z,24.00
2018-06-30T08:44:36.643Z,24.00
2018-06-30T08:47:04.500Z,23.90
2018-06-30T08:49:32.064Z,24.60
2018-06-30T08:51:59.601Z,24.70
2018-06-30T08:54:27.315Z,24.80
2018-06-30T08:56:56.433Z,24.60
2018-06-30T08:59:23.987Z,24.80
2018-06-30T09:01:51.556Z,25.00
2018-06-30T09:04:19.137Z,24.90
2018-06-30T09:06:46.680Z,25.20
2018-06-30T09:09:14.277Z,25.10
2018-06-30T09:11:41.825Z,25.30
2018-06-30T09:14:09.632Z,25.50
2018-06-30T09:16:37.227Z,25.80
2018-06-30T09:19:04.975Z,25.40
2018-06-30T09:21:32.541Z,25.50
2018-06-30T09:24:00.133Z,25.50
2018-06-30T09:26:27.693Z,25.70
2018-06-30T09:28:55.557Z,25.60
2018-06-30T09:31:23.141Z,25.40
2018-06-30T09:33:50.697Z,25.50
2018-06-30T09:36:18.307Z,25.80
2018-06-30T09:38:45.893Z,26.10
2018-06-30T09:41:13.464Z,26.10
2018-06-30T09:43:41.044Z,26.40
2018-06-30T09:46:08.656Z,26.00
2018-06-30T09:48:36.244Z,26.50
2018-06-30T09:51:03.916Z,26.90
2018-06-30T09:53:31.425Z,27.40
2018-06-30T09:55:59.005Z,26.90
2018-06-30T09:58:26.545Z,26.60
2018-06-30T10:00:59.646Z,26.90
2018-06-30T10:03:27.185Z,26.80
2018-06-30T10:05:54.792Z,27.30
2018-06-30T10:08:22.337Z,27.60
2018-06-30T10:10:49.914Z,27.50
2018-06-30T10:13:17.511Z,27.20
2018-06-30T10:15:45.067Z,26.80
2018-06-30T10:18:12.672Z,27.10
2018-06-30T10:20:40.216Z,27.30
2018-06-30T10:23:07.778Z,27.30
2018-06-30T10:25:35.316Z,27.70
2018-06-30T10:28:02.955Z,27.30
2018-06-30T10:30:30.523Z,27.40
2018-06-30T10:32:58.073Z,27.40
2018-06-30T10:35:25.672Z,26.90
2018-06-30T10:37:53.235Z,26.40
2018-06-30T10:40:20.789Z,27.00
2018-06-30T10:42:48.389Z,27.70
2018-06-30T10:45:15.928Z,27.90
2018-06-30T10:47:43.504Z,27.20
2018-06-30T10:50:11.047Z,27.10
2018-06-30T10:52:38.635Z,27.10
2018-06-30T10:55:06.192Z,27.60
2018-06-30T10:57:33.792Z,27.90
2018-06-30T11:00:01.330Z,28.00
2018-06-30T11:02:28.898Z,27.60
2018-06-30T11:04:56.526Z,27.80
2018-06-30T11:07:24.065Z,27.90
2018-06-30T11:09:51.634Z,27.80
2018-06-30T11:12:19.201Z,27.60
2018-06-30T11:14:46.802Z,28.10
2018-06-30T11:17:14.350Z,28.50
2018-06-30T11:19:41.959Z,28.20
2018-06-30T11:22:09.515Z,28.40
2018-06-30T11:24:37.078Z,28.90
2018-06-30T11:27:04.727Z,28.80
2018-06-30T11:29:32.369Z,28.50
2018-06-30T11:31:59.891Z,28.40
2018-06-30T11:34:27.481Z,29.20
2018-06-30T11:36:55.046Z,28.70
2018-06-30T11:39:22.600Z,29.10
2018-06-30T11:41:50.196Z,29.70
2018-06-30T11:44:17.762Z,29.20
2018-06-30T11:46:45.341Z,29.00
2018-06-30T11:49:12.936Z,29.30
2018-06-30T11:51:40.530Z,29.20
2018-06-30T11:54:08.084Z,29.90
2018-06-30T11:56:35.677Z,29.20
2018-06-30T11:59:03.281Z,29.80
2018-06-30T12:01:30.871Z,29.20
2018-06-30T12:03:58.396Z,29.20
2018-06-30T12:06:26.030Z,28.60
2018-06-30T12:08:53.573Z,29.20
2018-06-30T12:11:21.120Z,29.30
2018-06-30T12:13:48.701Z,29.60
2018-06-30T12:16:16.280Z,29.50
2018-06-30T12:18:43.820Z,29.00
2018-06-30T12:21:11.456Z,28.50
2018-06-30T12:23:39.040Z,28.40
2018-06-30T12:26:06.655Z,28.50
2018-06-30T12:28:34.623Z,28.40
2018-06-30T12:31:02.301Z,29.00
2018-06-30T12:33:29.861Z,29.10
2018-06-30T12:35:57.450Z,30.00
2018-06-30T12:38:25.009Z,29.00
2018-06-30T12:40:52.536Z,29.30
2018-06-30T12:43:20.101Z,29.70
2018-06-30T12:45:48.261Z,30.10
2018-06-30T12:48:15.842Z,30.30
2018-06-30T12:50:43.397Z,30.00
2018-06-30T12:53:10.965Z,30.40
2018-06-30T12:55:38.666Z,30.40
2018-06-30T12:58:06.484Z,29.70
2018-06-30T13:00:34.025Z,29.70
2018-06-30T13:03:01.564Z,30.10
2018-06-30T13:05:29.268Z,30.20
2018-06-30T13:07:56.844Z,30.00
2018-06-30T13:10:24.396Z,29.50
2018-06-30T13:12:51.953Z,29.80
2018-06-30T13:15:19.544Z,29.40
2018-06-30T13:17:47.226Z,29.40
2018-06-30T13:20:14.748Z,29.40
2018-06-30T13:22:42.353Z,29.30
2018-06-30T13:25:09.957Z,29.60
2018-06-30T13:27:37.558Z,29.70
2018-06-30T13:30:05.458Z,30.30
2018-06-30T13:32:33.025Z,31.10
2018-06-30T13:35:00.556Z,31.10
2018-06-30T13:37:28.181Z,30.50
2018-06-30T13:39:55.797Z,30.50
2018-06-30T13:42:23.428Z,30.40
2018-06-30T13:44:51.028Z,31.00
2018-06-30T13:47:18.581Z,30.50
2018-06-30T13:49:46.168Z,30.00
2018-06-30T13:52:13.742Z,29.60
2018-06-30T13:54:41.339Z,29.60
2018-06-30T13:57:08.917Z,29.40
2018-06-30T13:59:36.517Z,29.30
2018-06-30T14:02:04.122Z,30.20
2018-06-30T14:04:31.701Z,30.30
2018-06-30T14:06:59.300Z,30.00
2018-06-30T14:09:26.985Z,29.30
2018-06-30T14:11:54.596Z,29.20
2018-06-30T14:14:22.185Z,29.50
2018-06-30T14:16:49.769Z,29.20
2018-06-30T14:19:17.373Z,29.40
2018-06-30T14:21:44.961Z,29.40
2018-06-30T14:24:12.588Z,29.60
2018-06-30T14:26:40.128Z,29.00
2018-06-30T14:29:07.717Z,29.30
2018-06-30T14:31:35.326Z,28.70
2018-06-30T14:34:02.892Z,28.60
2018-06-30T14:36:30.501Z,28.80
2018-06-30T14:38:58.033Z,28.80
2018-06-30T14:41:25.711Z,29.10
2018-06-30T14:43:53.357Z,29.80
2018-06-30T14:46:20.916Z,29.80
2018-06-30T14:48:48.513Z,29.10
2018-06-30T14:51:16.081Z,28.70
2018-06-30T14:53:43.665Z,28.40
2018-06-30T14:56:11.250Z,28.50
2018-06-30T14:58:38.813Z,28.20
2018-06-30T15:01:06.465Z,28.40
2018-06-30T15:03:34.036Z,28.40
2018-06-30T15:06:01.615Z,28.50
2018-06-30T15:08:29.223Z,28.40
2018-06-30T15:10:56.833Z,28.50
2018-06-30T15:13:24.413Z,28.00
2018-06-30T15:15:52.005Z,28.10
2018-06-30T15:18:19.641Z,28.00
2018-06-30T15:20:47.240Z,28.20
2018-06-30T15:23:14.832Z,28.00
2018-06-30T15:25:42.433Z,27.80
2018-06-30T15:28:09.988Z,27.90
2018-06-30T15:30:37.571Z,28.20
2018-06-30T15:33:05.225Z,28.10
2018-06-30T15:35:32.836Z,27.70
2018-06-30T15:38:00.421Z,27.80
2018-06-30T15:40:28.026Z,27.70
2018-06-30T15:42:55.607Z,27.80
2018-06-30T15:45:23.222Z,27.90
2018-06-30T15:47:50.813Z,27.70
2018-06-30T15:50:18.471Z,27.70
2018-06-30T15:52:46.051Z,27.80
2018-06-30T15:55:13.597Z,27.80
2018-06-30T15:57:41.201Z,27.90
2018-06-30T16:00:08.916Z,27.80
2018-06-30T16:02:36.477Z,27.90
2018-06-30T16:05:04.100Z,28.00
2018-06-30T16:07:31.720Z,28.00
2018-06-30T16:09:59.328Z,27.80
2018-06-30T16:12:26.876Z,27.70
2018-06-30T16:14:54.447Z,27.40
2018-06-30T16:17:22.009Z,27.50
2018-06-30T16:19:49.568Z,27.30
2018-06-30T16:22:17.206Z,27.30
2018-06-30T16:24:44.750Z,27.40
2018-06-30T16:27:12.305Z,27.40
2018-06-30T16:29:39.923Z,27.40
2018-06-30T16:32:07.480Z,27.70
2018-06-30T16:34:35.106Z,27.40
2018-06-30T16:37:02.754Z,27.40
2018-06-30T16:39:30.369Z,27.30
2018-06-30T16:41:58.036Z,27.30
2018-06-30T16:44:25.616Z,27.10
2018-06-30T16:46:53.349Z,27.00
2018-06-30T16:49:20.970Z,27.00
2018-06-30T16:51:48.544Z,27.10
2018-06-30T16:54:16.196Z,27.10
2018-06-30T16:56:43.781Z,27.10
2018-06-30T16:59:11.436Z,27.00
2018-06-30T17:01:39.002Z,26.90
2018-06-30T17:04:06.966Z,26.90
2018-06-30T17:06:34.515Z,26.80
2018-06-30T17:09:02.209Z,26.90
2018-06-30T17:11:29.848Z,26.90
2018-06-30T17:13:57.462Z,26.90
2018-06-30T17:16:25.129Z,27.00
2018-06-30T17:18:52.788Z,26.90
2018-06-30T17:21:20.342Z,26.80
2018-06-30T17:23:47.949Z,26.70
2018-06-30T17:26:15.658Z,26.80
2018-06-30T17:28:43.237Z,26.60
2018-06-30T17:31:10.907Z,26.50
2018-06-30T17:33:38.524Z,26.50
2018-06-30T17:36:06.151Z,26.50
2018-06-30T17:38:33.794Z,26.40
2018-06-30T17:41:01.401Z,26.40
2018-06-30T17:43:29.017Z,26.20
2018-06-30T17:45:56.605Z,26.30
2018-06-30T17:48:24.180Z,26.30
2018-06-30T17:50:51.792Z,26.10
2018-06-30T17:53:19.385Z,26.00
2018-06-30T17:55:47.004Z,25.90
2018-06-30T17:58:14.592Z,25.90
2018-06-30T18:00:42.240Z,25.90
2018-06-30T18:03:09.823Z,25.80
2018-06-30T18:05:37.794Z,25.80
2018-06-30T18:08:05.453Z,25.80
2018-06-30T18:10:33.101Z,25.80
2018-06-30T18:13:00.686Z,25.80
2018-06-30T18:15:28.348Z,25.70
2018-06-30T18:17:55.996Z,25.60
2018-06-30T18:20:23.570Z,25.50
2018-06-30T18:22:51.288Z,25.40
2018-06-30T18:25:18.897Z,25.30
2018-06-30T18:27:46.569Z,25.20
2018-06-30T18:30:14.384Z,25.10
2018-06-30T18:32:42.004Z,24.70
2018-06-30T18:35:09.669Z,24.50
2018-06-30T18:37:37.285Z,24.40
2018-06-30T18:40:05.337Z,24.30
2018-06-30T18:42:33.120Z,24.20
2018-06-30T18:45:00.790Z,24.20
2018-06-30T18:47:28.449Z,24.10
2018-06-30T18:49:56.101Z,23.80
2018-06-30T18:52:23.901Z,23.60
2018-06-30T18:54:51.605Z,23.40
2018-06-30T18:57:19.335Z,23.10
2018-06-30T18:59:46.977Z,22.90
2018-06-30T19:02:14.692Z,22.80
2018-06-30T19:04:42.409Z,22.70
2018-06-30T19:07:10.112Z,22.50
2018-06-30T19:09:37.753Z,22.20
2018-06-30T19:12:05.530Z,22.00
2018-06-30T19:14:33.219Z,21.90
2018-06-30T19:17:00.946Z,21.60
2018-06-30T19:19:28.638Z,21.60
2018-06-30T19:21:56.337Z,21.30
2018-06-30T19:24:24.054Z,21.20
2018-06-30T19:26:51.914Z,21.10
2018-06-30T19:29:19.612Z,20.90
2018-06-30T19:31:47.298Z,20.80
2018-06-30T19:34:14.916Z,20.80
2018-06-30T19:36:42.523Z,20.60
2018-06-30T19:39:11.394Z,20.40
2018-06-30T19:41:39.114Z,20.40
2018-06-30T19:44:07.000Z,20.20
2018-06-30T19:46:34.590Z,20.00
2018-06-30T19:49:02.212Z,19.90
2018-06-30T19:51:29.830Z,19.90
2018-06-30T19:53:58.304Z,19.80
2018-06-30T19:56:25.905Z,19.70
2018-06-30T19:58:53.576Z,19.50
2018-06-30T20:01:21.233Z,19.40
2018-06-30T20:03:49.063Z,19.40
2018-06-30T20:06:51.770Z,19.20
2018-06-30T20:09:19.445Z,19.10
2018-06-30T20:50:57.347Z,17.40
2018-06-30T20:53:26.255Z,17.20
2018-06-30T20:55:53.929Z,17.10
2018-06-30T20:58:21.970Z,17.20
2018-06-30T21:00:49.920Z,17.20
2018-06-30T21:03:17.602Z,17.20
2018-06-30T21:05:45.568Z,16.90
2018-06-30T21:08:13.571Z,16.60
2018-06-30T21:10:41.188Z,16.60
2018-06-30T21:13:08.924Z,16.60
2018-06-30T21:15:36.752Z,16.50
2018-06-30T21:18:04.433Z,16.50
2018-06-30T21:20:32.089Z,16.30
2018-06-30T21:22:59.928Z,16.20
2018-06-30T21:25:27.624Z,16.00
2018-06-30T21:27:55.350Z,16.10
2018-06-30T21:30:23.013Z,15.80
2018-06-30T21:32:50.658Z,15.80
2018-06-30T21:35:18.381Z,15.80
2018-06-30T21:52:59.273Z,15.70
2018-06-30T21:55:26.876Z,15.50
2018-06-30T21:57:54.502Z,15.50
